Brasher Falls, New York
Current Conditions -  °F | °C
As of 6:53 PM on Monday 20 Oct 2014 (Local Time) from KMSS Reporting Station
Overcast Overcast  
Wind Chill: 43°   Ceiling: 4000
Heat Index: 45°   Visibility: 10mi
Dew Point: 44°   Wind: 5mph
Humidity: 97%   Direction: 80°E
Pressure: 29.92"   Gusts: NA
Location:  44.81°N, 74.77°W
Report Text: KMSS 202253Z AUTO 08004KT 10SM OVC040 07/07 A2992 RMK AO2 RAB00E46 SLP135 P0000 T00720067
Loading
Personal Weather Stations






























Interactive Weather Map
Tropical Storm Tracking
New forecast layout! Learn more

10-Day Weather Forecast

Advertisements
Track Severe Weather on mobile